createdAt,value
2022-09-18T00:01:28.169Z,10.29
2022-09-18T00:03:57.404Z,10.30
2022-09-18T00:06:26.438Z,10.32
2022-09-18T00:08:54.622Z,10.26
2022-09-18T00:11:24.058Z,10.26
2022-09-18T00:13:51.191Z,10.28
2022-09-18T00:16:20.018Z,10.30
2022-09-18T00:18:46.568Z,10.31
2022-09-18T00:21:18.981Z,10.27
2022-09-18T00:23:46.121Z,10.26
2022-09-18T00:26:14.662Z,10.29
2022-09-18T00:28:41.331Z,10.29
2022-09-18T00:31:14.064Z,10.31
2022-09-18T00:33:40.781Z,10.31
2022-09-18T00:36:10.326Z,10.31
2022-09-18T00:38:37.455Z,10.32
2022-09-18T00:41:08.063Z,10.32
2022-09-18T00:43:37.082Z,10.36
2022-09-18T00:46:22.288Z,10.31
2022-09-18T00:48:57.660Z,10.28
2022-09-18T00:51:25.839Z,10.31
2022-09-18T00:54:07.991Z,10.30
2022-09-18T00:56:35.315Z,10.27
2022-09-18T00:59:02.407Z,10.25
2022-09-18T01:01:29.002Z,10.24
2022-09-18T01:03:55.525Z,10.24
2022-09-18T01:06:42.596Z,10.19
2022-09-18T01:09:25.134Z,10.18
2022-09-18T01:12:33.238Z,10.17
2022-09-18T01:15:22.308Z,10.12
2022-09-18T01:18:12.123Z,10.07
2022-09-18T01:20:53.478Z,10.04
2022-09-18T01:23:23.138Z,10.03
2022-09-18T01:26:01.531Z,10.02
2022-09-18T01:28:35.993Z,10.01
2022-09-18T01:31:08.716Z,9.91
2022-09-18T01:33:38.148Z,9.86
2022-09-18T01:36:09.297Z,9.83
2022-09-18T01:38:41.170Z,9.85
2022-09-18T01:41:38.317Z,9.82
2022-09-18T01:44:14.364Z,9.81
2022-09-18T01:46:44.408Z,9.69
2022-09-18T01:49:14.619Z,9.69
2022-09-18T01:51:55.741Z,9.64
2022-09-18T01:54:27.147Z,9.62
2022-09-18T01:57:18.717Z,9.57
2022-09-18T02:00:09.565Z,9.51
2022-09-18T02:03:02.678Z,9.57
2022-09-18T02:05:37.789Z,9.44
2022-09-18T02:08:30.147Z,9.42
2022-09-18T02:11:06.569Z,9.35
2022-09-18T02:13:40.037Z,9.34
2022-09-18T02:16:13.400Z,9.30
2022-09-18T02:18:45.818Z,9.29
2022-09-18T02:21:16.983Z,9.25
2022-09-18T02:23:44.427Z,9.18
2022-09-18T02:26:13.954Z,9.13
2022-09-18T02:28:41.810Z,9.12
2022-09-18T02:31:08.626Z,9.06
2022-09-18T02:33:36.850Z,9.02
2022-09-18T02:36:09.534Z,8.95
2022-09-18T02:38:59.634Z,8.93
2022-09-18T02:41:47.470Z,8.93
2022-09-18T02:44:18.609Z,8.90
2022-09-18T02:47:01.616Z,8.84
2022-09-18T02:49:59.693Z,8.84
2022-09-18T02:52:46.338Z,8.74
2022-09-18T02:55:18.809Z,8.76
2022-09-18T02:58:18.949Z,8.71
2022-09-18T03:00:47.717Z,8.71
2022-09-18T03:03:15.615Z,8.64
2022-09-18T03:05:42.142Z,8.61
2022-09-18T03:08:08.665Z,8.58
2022-09-18T03:10:35.151Z,8.63
2022-09-18T03:13:01.615Z,8.59
2022-09-18T03:15:28.177Z,8.56
2022-09-18T03:17:54.642Z,8.54
2022-09-18T03:20:21.311Z,8.49
2022-09-18T03:22:47.790Z,8.51
2022-09-18T03:25:15.413Z,8.51
2022-09-18T03:27:42.966Z,8.55
2022-09-18T03:30:10.174Z,8.55
2022-09-18T03:32:36.655Z,8.55
2022-09-18T03:35:03.201Z,8.53
2022-09-18T03:37:29.664Z,8.53
2022-09-18T03:39:56.186Z,8.49
2022-09-18T03:42:22.771Z,8.50
2022-09-18T03:44:49.329Z,8.46
2022-09-18T03:47:15.784Z,8.50
2022-09-18T03:49:42.279Z,8.51
2022-09-18T03:52:08.755Z,8.61
2022-09-18T03:54:35.200Z,8.54
2022-09-18T03:57:01.692Z,8.52
2022-09-18T03:59:28.155Z,8.54
2022-09-18T04:01:54.774Z,8.48
2022-09-18T04:04:21.265Z,8.46
2022-09-18T04:06:47.750Z,8.42
2022-09-18T04:09:14.270Z,8.45
2022-09-18T04:11:40.777Z,8.37
2022-09-18T04:14:07.238Z,8.35
2022-09-18T04:16:34.219Z,8.35
2022-09-18T04:19:00.761Z,8.35
2022-09-18T04:21:27.236Z,8.37
2022-09-18T04:23:53.749Z,8.35
2022-09-18T04:26:20.223Z,8.42
2022-09-18T04:28:46.739Z,8.35
2022-09-18T04:31:13.439Z,8.35
2022-09-18T04:33:39.997Z,8.37
2022-09-18T04:36:07.058Z,8.38
2022-09-18T04:38:33.734Z,8.35
2022-09-18T04:41:00.784Z,8.43
2022-09-18T04:43:28.227Z,8.39
2022-09-18T04:45:55.298Z,8.44
2022-09-18T04:48:22.716Z,8.48
2022-09-18T04:50:49.702Z,8.50
2022-09-18T04:53:16.611Z,8.60
2022-09-18T04:55:44.962Z,8.74
2022-09-18T04:58:12.594Z,8.81
2022-09-18T05:00:39.379Z,8.83
2022-09-18T05:03:07.071Z,8.86
2022-09-18T05:05:33.786Z,8.93
2022-09-18T05:08:01.459Z,9.04
2022-09-18T05:10:28.260Z,9.05
2022-09-18T05:12:54.838Z,9.04
2022-09-18T05:15:22.223Z,9.03
2022-09-18T05:17:48.745Z,9.06
2022-09-18T05:20:15.375Z,9.06
2022-09-18T05:22:47.045Z,9.07
2022-09-18T05:25:13.597Z,9.12
2022-09-18T05:27:40.106Z,9.15
2022-09-18T05:30:07.433Z,9.18
2022-09-18T05:32:33.975Z,9.20
2022-09-18T05:35:01.000Z,9.25
2022-09-18T05:37:27.494Z,9.32
2022-09-18T05:39:54.032Z,9.36
2022-09-18T05:42:20.679Z,9.49
2022-09-18T05:44:47.303Z,9.49
2022-09-18T05:47:13.856Z,9.49
2022-09-18T05:49:40.337Z,9.54
2022-09-18T05:52:06.804Z,9.55
2022-09-18T05:54:36.185Z,9.61
2022-09-18T05:57:02.684Z,9.66
2022-09-18T05:59:29.373Z,9.70
2022-09-18T06:01:56.053Z,9.79
2022-09-18T06:04:22.593Z,9.78
2022-09-18T06:06:49.064Z,9.86
2022-09-18T06:09:15.550Z,9.91
2022-09-18T06:11:42.102Z,9.96
2022-09-18T06:14:09.018Z,9.97
2022-09-18T06:16:39.900Z,9.99
2022-09-18T06:19:08.615Z,10.01
2022-09-18T06:21:35.361Z,10.02
2022-09-18T06:24:02.079Z,10.06
2022-09-18T06:26:28.816Z,10.13
2022-09-18T06:28:55.292Z,10.19
2022-09-18T06:31:21.810Z,10.27
2022-09-18T06:33:49.151Z,10.32
2022-09-18T06:36:16.377Z,10.32
2022-09-18T06:38:42.878Z,10.37
2022-09-18T06:41:10.361Z,10.48
2022-09-18T06:43:36.902Z,10.56
2022-09-18T06:46:04.538Z,10.66
2022-09-18T06:48:31.619Z,10.67
2022-09-18T06:50:59.545Z,10.75
2022-09-18T06:53:26.437Z,10.85
2022-09-18T06:55:53.355Z,10.88
2022-09-18T06:58:20.301Z,11.00
2022-09-18T07:00:46.925Z,11.01
2022-09-18T07:03:13.574Z,11.13
2022-09-18T07:05:47.918Z,11.15
2022-09-18T07:08:14.520Z,11.23
2022-09-18T07:10:41.200Z,11.35
2022-09-18T07:13:07.789Z,11.43
2022-09-18T07:15:34.827Z,11.51
2022-09-18T07:18:03.178Z,11.61
2022-09-18T07:20:30.009Z,11.67
2022-09-18T07:22:58.831Z,11.83
2022-09-18T07:25:27.111Z,11.80
2022-09-18T07:27:54.016Z,11.81
2022-09-18T07:30:21.613Z,11.83
2022-09-18T07:32:48.953Z,11.87
2022-09-18T07:35:15.458Z,12.06
2022-09-18T07:37:41.957Z,12.30
2022-09-18T07:40:09.694Z,12.38
2022-09-18T07:42:36.397Z,12.26
2022-09-18T07:45:03.709Z,12.27
2022-09-18T07:47:30.225Z,12.32
2022-09-18T07:49:56.808Z,12.45
2022-09-18T07:52:23.382Z,12.55
2022-09-18T07:54:49.951Z,12.68
2022-09-18T07:57:16.476Z,12.80
2022-09-18T07:59:43.017Z,12.83
2022-09-18T08:02:11.484Z,12.91
2022-09-18T08:04:38.041Z,12.83
2022-09-18T08:07:04.570Z,12.89
2022-09-18T08:09:31.282Z,13.13
2022-09-18T08:11:58.210Z,13.14
2022-09-18T08:14:28.726Z,13.34
2022-09-18T08:16:55.934Z,13.38
2022-09-18T08:19:22.519Z,13.35
2022-09-18T08:21:49.085Z,13.45
2022-09-18T08:24:17.421Z,13.34
2022-09-18T08:26:44.377Z,13.36
2022-09-18T08:29:10.884Z,13.33
2022-09-18T08:31:37.513Z,13.19
2022-09-18T08:34:04.160Z,13.13
2022-09-18T08:36:30.661Z,13.08
2022-09-18T08:38:57.335Z,13.06
2022-09-18T08:41:43.004Z,13.03
2022-09-18T08:44:24.408Z,13.03
2022-09-18T08:47:01.962Z,12.92
2022-09-18T08:50:02.879Z,12.89
2022-09-18T08:52:34.145Z,12.98
2022-09-18T08:55:09.483Z,12.86
2022-09-18T08:57:38.960Z,12.89
2022-09-18T09:00:16.091Z,12.82
2022-09-18T09:02:50.625Z,12.84
2022-09-18T09:05:27.984Z,12.79
2022-09-18T09:08:32.810Z,12.81
2022-09-18T09:11:51.934Z,12.73
2022-09-18T09:14:55.510Z,12.63
2022-09-18T09:17:35.641Z,12.66
2022-09-18T09:20:11.330Z,12.78
2022-09-18T09:23:02.104Z,12.81
2022-09-18T09:25:40.663Z,13.05
2022-09-18T09:28:19.807Z,13.26
2022-09-18T09:30:52.411Z,13.55
2022-09-18T09:33:31.116Z,13.73
2022-09-18T09:36:07.190Z,13.73
2022-09-18T09:38:39.398Z,13.68
2022-09-18T09:41:22.769Z,13.56
2022-09-18T09:43:56.883Z,13.29
2022-09-18T09:46:47.310Z,13.29
2022-09-18T09:49:25.138Z,13.05
2022-09-18T09:51:56.595Z,12.89
2022-09-18T09:54:23.352Z,12.86
2022-09-18T09:57:15.171Z,12.72
2022-09-18T09:59:46.357Z,12.73
2022-09-18T10:02:36.860Z,12.65
2022-09-18T10:05:25.686Z,12.51
2022-09-18T10:08:13.094Z,12.43
2022-09-18T10:10:58.134Z,12.53
2022-09-18T10:13:31.024Z,12.45
2022-09-18T10:16:12.854Z,12.53
2022-09-18T10:18:46.054Z,12.51
2022-09-18T10:21:21.282Z,12.62
2022-09-18T10:23:53.078Z,12.78
2022-09-18T10:26:34.763Z,13.06
2022-09-18T10:29:02.369Z,13.31
2022-09-18T10:31:53.705Z,13.58
2022-09-18T10:34:40.874Z,13.71
2022-09-18T10:37:29.375Z,13.81
2022-09-18T10:40:01.499Z,13.91
2022-09-18T10:42:36.480Z,14.13
2022-09-18T10:45:20.103Z,14.20
2022-09-18T10:47:46.662Z,14.44
2022-09-18T10:50:13.305Z,14.73
2022-09-18T10:52:41.782Z,14.65
2022-09-18T10:55:08.367Z,14.78
2022-09-18T10:57:40.471Z,14.77
2022-09-18T11:00:13.162Z,14.54
2022-09-18T11:02:45.707Z,14.40
2022-09-18T11:05:39.854Z,14.67
2022-09-18T11:08:19.284Z,15.14
2022-09-18T11:10:51.427Z,15.31
2022-09-18T11:13:25.971Z,15.34
2022-09-18T11:15:57.003Z,15.40
2022-09-18T11:18:27.303Z,15.40
2022-09-18T11:20:57.180Z,15.44
2022-09-18T11:23:37.641Z,15.23
2022-09-18T11:26:12.302Z,14.93
2022-09-18T11:28:39.877Z,14.71
2022-09-18T11:31:15.870Z,14.64
2022-09-18T11:33:49.622Z,14.48
2022-09-18T11:36:24.714Z,14.50
2022-09-18T11:38:53.034Z,14.43
2022-09-18T11:41:40.527Z,14.49
2022-09-18T11:44:22.847Z,14.51
2022-09-18T11:46:52.208Z,14.55
2022-09-18T11:49:44.424Z,14.53
2022-09-18T11:52:16.034Z,14.56
2022-09-18T11:54:52.737Z,14.67
2022-09-18T11:57:41.991Z,14.96
2022-09-18T12:00:28.166Z,15.48
2022-09-18T12:03:13.067Z,15.74
2022-09-18T12:05:39.577Z,16.28
2022-09-18T12:08:27.191Z,17.24
2022-09-18T12:11:12.561Z,17.34
2022-09-18T12:13:45.731Z,17.26
2022-09-18T12:16:37.298Z,17.15
2022-09-18T12:19:12.837Z,16.65
2022-09-18T12:22:09.366Z,16.35
2022-09-18T12:24:35.978Z,15.99
2022-09-18T12:27:27.984Z,16.10
2022-09-18T12:30:00.406Z,17.41
2022-09-18T12:33:04.617Z,18.53
2022-09-18T12:36:00.131Z,19.83
2022-09-18T12:38:41.752Z,19.53
2022-09-18T12:41:45.876Z,19.26
2022-09-18T12:44:48.439Z,18.71
2022-09-18T12:47:33.518Z,18.25
2022-09-18T12:50:22.187Z,18.06
2022-09-18T12:53:26.185Z,18.32
2022-09-18T12:56:17.771Z,18.73
2022-09-18T12:59:16.283Z,19.09
2022-09-18T13:01:45.635Z,19.25
2022-09-18T13:04:47.166Z,19.81
2022-09-18T13:07:21.094Z,20.75
2022-09-18T13:10:28.519Z,21.84
2022-09-18T13:13:12.260Z,22.32
2022-09-18T13:15:46.438Z,21.42
2022-09-18T13:18:26.267Z,20.25
2022-09-18T13:20:55.636Z,19.37
2022-09-18T13:23:28.729Z,18.84
2022-09-18T13:25:57.398Z,18.35
2022-09-18T13:28:25.884Z,18.18
2022-09-18T13:31:14.092Z,18.72
2022-09-18T13:33:51.905Z,18.95
2022-09-18T13:36:28.641Z,18.57
2022-09-18T13:38:59.707Z,17.78
2022-09-18T13:41:27.346Z,17.22
2022-09-18T13:43:55.409Z,16.75
2022-09-18T13:46:40.579Z,16.38
2022-09-18T13:49:37.400Z,16.14
2022-09-18T13:52:31.738Z,15.33
2022-09-18T13:55:02.282Z,14.70
2022-09-18T13:57:30.440Z,14.25
2022-09-18T14:00:07.983Z,14.00
2022-09-18T14:02:37.164Z,13.51
2022-09-18T14:05:39.785Z,13.32
2022-09-18T14:08:30.178Z,12.86
2022-09-18T14:11:14.972Z,12.45
2022-09-18T14:13:47.516Z,12.49
2022-09-18T14:16:26.999Z,12.54
2022-09-18T14:18:58.395Z,12.86
2022-09-18T14:21:38.959Z,13.26
2022-09-18T14:24:27.389Z,13.42
2022-09-18T14:27:21.534Z,14.41
2022-09-18T14:29:49.235Z,15.07
2022-09-18T14:32:18.773Z,15.09
2022-09-18T14:34:45.434Z,14.84
2022-09-18T14:37:17.785Z,14.65
2022-09-18T14:39:45.137Z,14.28
2022-09-18T14:42:13.847Z,14.04
2022-09-18T14:44:47.759Z,13.85
2022-09-18T14:47:21.353Z,13.42
2022-09-18T14:49:49.250Z,13.16
2022-09-18T14:52:25.537Z,13.10
2022-09-18T14:54:54.658Z,13.01
2022-09-18T14:57:28.842Z,13.09
2022-09-18T14:59:58.554Z,13.16
2022-09-18T15:02:36.437Z,14.12
2022-09-18T15:05:10.617Z,15.00
2022-09-18T15:07:39.922Z,15.69
2022-09-18T15:10:09.401Z,16.09
2022-09-18T15:12:37.087Z,16.00
2022-09-18T15:15:44.054Z,16.12
2022-09-18T15:18:27.537Z,16.51
2022-09-18T15:20:56.848Z,16.78
2022-09-18T15:23:26.812Z,16.80
2022-09-18T15:25:56.689Z,16.69
2022-09-18T15:28:26.840Z,15.92
2022-09-18T15:30:59.401Z,15.84
2022-09-18T15:33:27.440Z,15.19
2022-09-18T15:35:55.838Z,14.74
2022-09-18T15:38:36.235Z,14.35
2022-09-18T15:41:22.062Z,14.05
2022-09-18T15:43:50.357Z,13.80
2022-09-18T15:46:25.976Z,13.56
2022-09-18T15:48:53.040Z,13.45
2022-09-18T15:51:28.982Z,13.41
2022-09-18T15:54:10.532Z,14.39
2022-09-18T15:56:39.881Z,16.68
2022-09-18T15:59:38.655Z,15.12
2022-09-18T16:02:29.173Z,14.08
2022-09-18T16:04:56.340Z,13.74
2022-09-18T16:07:28.072Z,13.42
2022-09-18T16:09:55.031Z,13.20
2022-09-18T16:12:30.378Z,13.09
2022-09-18T16:15:16.903Z,12.94
2022-09-18T16:17:46.289Z,12.79
2022-09-18T16:20:41.362Z,12.64
2022-09-18T16:23:28.243Z,12.48
2022-09-18T16:26:30.743Z,12.43
2022-09-18T16:29:01.324Z,12.30
2022-09-18T16:31:33.363Z,12.18
2022-09-18T16:34:03.198Z,12.08
2022-09-18T16:36:31.235Z,12.02
2022-09-18T16:39:01.441Z,11.95
2022-09-18T16:41:29.646Z,11.87
2022-09-18T16:43:56.480Z,11.73
2022-09-18T16:46:31.340Z,11.67
2022-09-18T16:48:57.893Z,11.57
2022-09-18T16:51:24.371Z,11.56
2022-09-18T16:53:50.918Z,11.51
2022-09-18T16:56:24.842Z,11.49
2022-09-18T16:58:52.257Z,11.39
2022-09-18T17:01:23.128Z,11.44
2022-09-18T17:03:50.786Z,11.37
2022-09-18T17:06:18.984Z,11.22
2022-09-18T17:08:46.920Z,11.21
2022-09-18T17:11:13.722Z,11.10
2022-09-18T17:13:40.246Z,11.02
2022-09-18T17:16:06.982Z,11.01
2022-09-18T17:18:34.984Z,10.93
2022-09-18T17:21:02.979Z,10.86
2022-09-18T17:23:30.675Z,10.79
2022-09-18T17:26:09.066Z,10.69
2022-09-18T17:28:36.884Z,10.58
2022-09-18T17:31:18.388Z,10.56
2022-09-18T17:33:45.730Z,10.48
2022-09-18T17:36:14.753Z,10.43
2022-09-18T17:38:42.295Z,10.43
2022-09-18T17:41:11.997Z,10.37
2022-09-18T17:43:39.549Z,10.40
2022-09-18T17:46:08.666Z,10.42
2022-09-18T17:48:35.253Z,10.38
2022-09-18T17:51:04.764Z,10.34
2022-09-18T17:53:33.474Z,10.33
2022-09-18T17:56:00.911Z,10.31
2022-09-18T17:58:28.697Z,10.32
2022-09-18T18:00:56.165Z,10.35
2022-09-18T18:03:23.155Z,10.32
2022-09-18T18:05:51.720Z,10.32
2022-09-18T18:08:18.696Z,10.35
2022-09-18T18:10:45.816Z,10.39
2022-09-18T18:13:13.417Z,10.36
2022-09-18T18:15:40.158Z,10.29
2022-09-18T18:18:07.477Z,10.31
2022-09-18T18:20:34.106Z,10.36
2022-09-18T18:23:00.644Z,10.30
2022-09-18T18:25:27.251Z,10.25
2022-09-18T18:27:57.054Z,10.20
2022-09-18T18:30:24.642Z,10.21
2022-09-18T18:32:52.038Z,10.15
2022-09-18T18:35:19.650Z,10.10
2022-09-18T18:37:46.667Z,10.11
2022-09-18T18:40:13.397Z,10.04
2022-09-18T18:42:39.929Z,10.07
2022-09-18T18:45:07.246Z,10.09
2022-09-18T18:47:33.982Z,10.11
2022-09-18T18:50:00.553Z,10.09
2022-09-18T18:52:27.082Z,10.04
2022-09-18T18:54:53.622Z,9.96
2022-09-18T18:57:21.612Z,9.94
2022-09-18T18:59:48.093Z,9.97
2022-09-18T19:02:14.691Z,10.00
2022-09-18T19:04:43.053Z,10.00
2022-09-18T19:07:10.817Z,10.02
2022-09-18T19:09:37.299Z,9.94
2022-09-18T19:12:04.148Z,9.88
2022-09-18T19:14:33.282Z,9.90
2022-09-18T19:17:00.121Z,9.89
2022-09-18T19:19:28.395Z,9.91
2022-09-18T19:21:59.517Z,9.94
2022-09-18T19:24:27.001Z,9.99
2022-09-18T19:26:54.049Z,9.96
2022-09-18T19:29:21.945Z,9.97
2022-09-18T19:31:49.306Z,10.00
2022-09-18T19:34:18.857Z,9.98
2022-09-18T19:36:47.185Z,9.91
2022-09-18T19:39:13.794Z,9.96
2022-09-18T19:41:49.058Z,9.95
2022-09-18T19:44:33.624Z,9.95
2022-09-18T19:47:06.616Z,9.93
2022-09-18T19:49:37.190Z,9.89
2022-09-18T19:52:13.853Z,9.89
2022-09-18T19:54:40.335Z,9.87
2022-09-18T19:57:06.822Z,9.89
2022-09-18T19:59:33.330Z,9.87
2022-09-18T20:01:59.894Z,9.89
2022-09-18T20:04:29.008Z,9.91
2022-09-18T20:06:55.482Z,9.91
2022-09-18T20:09:22.470Z,9.90
2022-09-18T20:11:49.207Z,9.92
2022-09-18T20:14:16.050Z,9.92
2022-09-18T20:16:42.534Z,9.89
2022-09-18T20:19:09.010Z,9.86
2022-09-18T20:21:35.523Z,9.84
2022-09-18T20:24:02.193Z,9.78
2022-09-18T20:26:28.994Z,9.75
2022-09-18T20:28:55.620Z,9.76
2022-09-18T20:31:23.911Z,9.74
2022-09-18T20:33:57.570Z,9.76
2022-09-18T20:36:25.651Z,9.77
2022-09-18T20:38:57.815Z,9.77
2022-09-18T20:41:28.062Z,9.74
2022-09-18T20:43:54.939Z,9.69
2022-09-18T20:46:22.024Z,9.67
2022-09-18T20:48:53.078Z,9.69
2022-09-18T20:51:19.853Z,9.65
2022-09-18T20:53:46.527Z,9.67
2022-09-18T20:56:15.571Z,9.64
2022-09-18T20:58:42.499Z,9.67
2022-09-18T21:01:11.374Z,9.69
2022-09-18T21:03:40.529Z,9.73
2022-09-18T21:06:23.557Z,9.74
2022-09-18T21:08:53.629Z,9.76
2022-09-18T21:11:30.985Z,9.79
2022-09-18T21:14:00.817Z,9.81
2022-09-18T21:16:29.974Z,9.83
2022-09-18T21:18:59.323Z,9.83
2022-09-18T21:21:27.586Z,9.86
2022-09-18T21:24:02.171Z,9.88
2022-09-18T21:26:32.973Z,9.92
2022-09-18T21:29:05.175Z,9.94
2022-09-18T21:31:36.546Z,9.98
2022-09-18T21:34:04.506Z,10.02
2022-09-18T21:36:34.840Z,10.11
2022-09-18T21:39:01.349Z,10.14
2022-09-18T21:41:27.855Z,10.16
2022-09-18T21:43:57.494Z,10.17
2022-09-18T21:46:24.222Z,10.16
2022-09-18T21:48:54.398Z,10.17
2022-09-18T21:51:21.401Z,10.14
2022-09-18T21:53:48.352Z,10.15
2022-09-18T21:56:20.056Z,10.12
2022-09-18T21:58:47.821Z,10.07
2022-09-18T22:01:22.538Z,10.05
2022-09-18T22:03:52.261Z,10.05
2022-09-18T22:06:25.127Z,10.03
2022-09-18T22:08:54.728Z,10.03
2022-09-18T22:11:25.065Z,10.01
2022-09-18T22:13:52.650Z,10.04
2022-09-18T22:16:31.670Z,10.02
2022-09-18T22:18:58.866Z,10.07
2022-09-18T22:21:31.487Z,10.04
2022-09-18T22:24:06.727Z,10.05
2022-09-18T22:26:36.212Z,10.07
2022-09-18T22:29:05.803Z,10.06
2022-09-18T22:31:33.202Z,10.07
2022-09-18T22:34:00.469Z,10.07
2022-09-18T22:36:27.291Z,10.06
2022-09-18T22:38:54.771Z,10.07
2022-09-18T22:41:21.357Z,10.08
2022-09-18T22:43:48.183Z,10.14
2022-09-18T22:46:16.448Z,10.17
2022-09-18T22:48:43.630Z,10.26
2022-09-18T22:51:13.282Z,10.31
2022-09-18T22:53:45.735Z,10.38
2022-09-18T22:56:14.258Z,10.51
2022-09-18T22:58:41.982Z,10.60
2022-09-18T23:01:14.501Z,10.70
2022-09-18T23:03:41.833Z,10.82
2022-09-18T23:06:09.050Z,10.82
2022-09-18T23:08:37.399Z,10.88
2022-09-18T23:11:11.718Z,11.00
2022-09-18T23:13:39.951Z,10.95
2022-09-18T23:16:11.738Z,10.95
2022-09-18T23:18:38.474Z,10.95
2022-09-18T23:21:11.421Z,10.92
2022-09-18T23:23:40.057Z,10.93
2022-09-18T23:26:12.329Z,11.13
2022-09-18T23:28:41.795Z,11.10
2022-09-18T23:31:11.036Z,11.14
2022-09-18T23:33:38.713Z,11.07
2022-09-18T23:36:06.283Z,11.09
2022-09-18T23:38:33.154Z,11.10
2022-09-18T23:41:04.787Z,11.16
2022-09-18T23:43:33.031Z,11.08
2022-09-18T23:46:00.043Z,11.06
2022-09-18T23:48:27.555Z,10.98
2022-09-18T23:50:55.097Z,11.00
2022-09-18T23:53:23.229Z,11.03
2022-09-18T23:55:49.975Z,11.01
2022-09-18T23:58:17.265Z,11.03
